Time;durP1;ratioP1;P1;durP2;ratioP2;P2;SDS_P1;SDS_P2;PMS_P1;PMS_P2;Temp;Humidity;BMP_temperature;BMP_pressure;BME280_temperature;BME280_humidity;BME280_pressure;Samples;Min_cycle;Max_cycle;Signal;HPM_P1;HPM_P2
2022/12/06 07:20:27;;;;;;;9.15;2.90;;;;;;;-6.61;72.93;101513.81;1741818;77;21130;-49
2022/12/06 07:32:37;;;;;;;12.73;3.65;;;;;;;-6.40;72.86;101508.39;1651949;85;21164;-51
2022/12/06 07:35:34;;;;;;;7.03;3.08;;;;;;;-6.32;73.19;101497.23;1686810;82;21160;-42
2022/12/06 08:01:31;;;;;;;5.53;2.33;;;;;;;-5.93;74.10;101474.23;1624837;85;21180;-44
2022/12/06 10:16:07;;;;;;;10.35;3.15;;;;;;;0.87;56.99;101271.98;1784658;78;22234;-38
2022/12/06 10:19:07;;;;;;;8.83;4.08;;;;;;;1.19;55.81;101265.08;1806473;78;21057;-38
2022/12/06 10:22:14;;;;;;;6.03;2.98;;;;;;;1.53;54.29;101268.61;1699189;82;20976;-39
2022/12/06 10:24:58;;;;;;;14.65;3.85;;;;;;;1.54;52.99;101265.62;1691190;82;21401;-38
2022/12/06 10:27:48;;;;;;;6.87;2.83;;;;;;;1.63;53.08;101246.77;1697576;82;21507;-48
2022/12/06 10:30:16;;;;;;;7.53;2.55;;;;;;;1.83;52.26;101254.21;1698481;82;21056;-39
2022/12/06 10:33:25;;;;;;;5.40;2.62;;;;;;;1.87;50.92;101252.27;1712077;81;20996;-40
2022/12/06 10:35:57;;;;;;;9.60;2.62;;;;;;;1.78;51.02;101255.27;1703853;82;21023;-48
2022/12/06 10:38:47;;;;;;;5.25;2.10;;;;;;;1.68;51.35;101252.13;1704902;82;21357;-40
2022/12/06 10:41:31;;;;;;;5.78;2.20;;;;;;;1.68;51.09;101243.10;1704015;82;20968;-39
2022/12/06 10:44:54;;;;;;;12.58;3.27;;;;;;;1.80;51.19;101242.46;1701390;82;21138;-39
2022/12/06 10:47:56;;;;;;;6.95;2.87;;;;;;;2.21;50.95;101233.29;1707688;82;21046;-39
2022/12/06 10:50:48;;;;;;;4.00;2.47;;;;;;;2.51;49.85;101234.75;1692791;83;21455;-38
2022/12/06 10:57:25;;;;;;;8.53;3.15;;;;;;;2.39;48.94;101214.39;1757615;80;21023;-47
2022/12/06 11:00:19;;;;;;;10.40;3.58;;;;;;;2.47;48.88;101210.86;1759250;80;21869;-47
2022/12/06 11:03:14;;;;;;;13.35;3.27;;;;;;;2.49;48.58;101210.52;1731081;80;21024;-39
2022/12/06 11:05:56;;;;;;;6.03;2.60;;;;;;;2.52;48.72;101214.55;1728113;80;21049;-47
2022/12/06 11:08:36;;;;;;;4.08;2.87;;;;;;;2.79;48.56;101202.45;1735150;80;21693;-40
2022/12/06 11:11:04;;;;;;;11.60;3.30;;;;;;;2.92;47.47;101204.34;1752052;80;21003;-47
2022/12/06 11:13:39;;;;;;;7.42;2.72;;;;;;;2.95;47.20;101199.70;1744644;78;21036;-47
2022/12/06 11:16:31;;;;;;;6.50;3.12;;;;;;;2.87;47.04;101202.38;1760529;80;21496;-48
2022/12/06 11:19:37;;;;;;;4.83;2.37;;;;;;;2.43;47.25;101199.90;1717563;81;21026;-48
2022/12/06 11:22:19;;;;;;;6.30;3.27;;;;;;;1.96;48.07;101202.38;1715337;82;21311;-48
2022/12/06 11:25:07;;;;;;;4.95;2.50;;;;;;;1.55;49.11;101199.04;1727760;81;21712;-47
2022/12/06 11:27:37;;;;;;;5.00;2.42;;;;;;;1.67;49.63;101198.77;1774909;79;21044;-49
2022/12/06 11:30:11;;;;;;;10.60;2.92;;;;;;;2.10;49.29;101187.17;1778112;79;21061;-48
2022/12/06 11:32:46;;;;;;;5.67;2.75;;;;;;;2.54;48.39;101181.91;1771376;79;21909;-45
2022/12/06 11:35:25;;;;;;;6.47;2.90;;;;;;;2.88;47.56;101179.17;1768506;79;21613;-48
2022/12/06 11:38:34;;;;;;;;;;;;;;;3.04;47.13;101162.64;1771796;79;21499;-38
2022/12/06 11:41:49;;;;;;;6.05;2.72;;;;;;;3.13;47.12;101164.36;1778425;79;20119;-40
2022/12/06 11:44:20;;;;;;;5.03;2.75;;;;;;;3.49;46.59;101161.58;1720424;81;21011;-38
2022/12/06 11:46:51;;;;;;;7.70;2.55;;;;;;;4.06;46.02;101153.14;1748253;80;21005;-50
2022/12/06 11:49:33;;;;;;;5.42;2.67;;;;;;;4.40;44.90;101147.95;1775954;79;21132;-48
2022/12/06 11:52:03;;;;;;;4.33;2.37;;;;;;;4.44;44.32;101152.02;1739025;80;21186;-38
2022/12/06 11:54:35;;;;;;;4.72;2.40;;;;;;;4.40;44.48;101151.84;1783410;78;21064;-40
2022/12/06 11:57:12;;;;;;;3.85;2.25;;;;;;;4.33;43.62;101141.66;1755675;79;21088;-39
2022/12/06 11:59:38;;;;;;;5.28;2.30;;;;;;;4.14;43.56;101141.77;1765568;79;21160;-46
